Atwater, New York
Current Conditions -  °F | °C
As of 12:56 PM on Wednesday 28 Jan 2015 (Local Time) from KITH Reporting Station
Clear Clear  
Wind Chill: -14°   Ceiling: Unl
Heat Index: -7°   Visibility: 10mi
Dew Point: -14°   Wind: 14mph
Humidity: 57%   Direction: 340°NNW
Pressure: 30.19"   Gusts: NA
Location:  42.6734°N, 76.6263°W
Report Text: KITH 281756Z 34012KT 10SM CLR M07/M14 A3019 RMK AO2 50001 T10661138 11066 21138 SLP245
Loading
Personal Weather Stations






























Interactive Weather Map New forecast layout! Learn more

10-Day Weather Forecast

Advertisements
Track Severe Weather on mobile